createdAt,value
2022-11-14T00:01:22.150Z,17.70
2022-11-14T00:04:10.689Z,17.07
2022-11-14T00:06:57.835Z,18.03
2022-11-14T00:09:44.706Z,17.20
2022-11-14T00:12:31.613Z,16.80
2022-11-14T00:15:18.968Z,16.97
2022-11-14T00:18:06.151Z,18.40
2022-11-14T00:20:54.863Z,16.83
2022-11-14T00:23:41.542Z,16.33
2022-11-14T00:26:28.409Z,16.37
2022-11-14T00:29:17.124Z,16.90
2022-11-14T00:32:04.029Z,16.10
2022-11-14T00:34:50.994Z,15.73
2022-11-14T00:37:39.169Z,14.17
2022-11-14T00:40:27.139Z,14.37
2022-11-14T00:43:14.256Z,16.07
2022-11-14T00:46:01.439Z,16.63
2022-11-14T00:48:48.586Z,16.63
2022-11-14T00:51:35.222Z,16.70
2022-11-14T00:54:23.298Z,15.70
2022-11-14T00:57:10.300Z,16.67
2022-11-14T00:59:57.147Z,17.90
2022-11-14T01:02:45.692Z,17.10
2022-11-14T01:05:32.487Z,16.47
2022-11-14T01:08:20.308Z,15.97
2022-11-14T01:11:13.199Z,16.17
2022-11-14T01:14:00.108Z,17.17
2022-11-14T01:16:47.260Z,16.47
2022-11-14T01:19:34.649Z,17.83
2022-11-14T01:22:21.650Z,17.47
2022-11-14T01:25:09.508Z,17.10
2022-11-14T01:27:58.042Z,17.17
2022-11-14T01:30:45.565Z,17.50
2022-11-14T01:33:32.292Z,18.30
2022-11-14T01:36:19.908Z,17.47
2022-11-14T01:39:06.884Z,16.90
2022-11-14T01:41:53.988Z,18.17
2022-11-14T01:44:47.693Z,18.07
2022-11-14T01:47:35.248Z,19.00
2022-11-14T01:50:22.349Z,19.93
2022-11-14T01:53:09.119Z,17.97
2022-11-14T01:56:00.395Z,18.47
2022-11-14T01:58:51.186Z,18.80
2022-11-14T02:01:45.850Z,19.43
2022-11-14T02:04:39.878Z,19.20
2022-11-14T02:07:29.585Z,19.57
2022-11-14T02:10:18.844Z,21.60
2022-11-14T02:13:06.012Z,19.40
2022-11-14T02:15:54.712Z,15.70
2022-11-14T02:18:43.018Z,14.07
2022-11-14T02:21:31.165Z,14.37
2022-11-14T02:24:18.388Z,14.50
2022-11-14T02:27:08.392Z,14.53
2022-11-14T02:29:55.261Z,14.23
2022-11-14T02:33:10.417Z,15.63
2022-11-14T02:35:48.773Z,16.53
2022-11-14T02:38:37.022Z,14.73
2022-11-14T02:41:24.093Z,15.00
2022-11-14T02:44:11.219Z,17.00
2022-11-14T02:46:58.084Z,18.13
2022-11-14T02:49:44.892Z,20.13
2022-11-14T02:52:31.757Z,19.00
2022-11-14T02:55:19.945Z,19.77
2022-11-14T02:58:07.626Z,19.97
2022-11-14T03:01:19.044Z,22.47
2022-11-14T03:04:01.109Z,22.37
2022-11-14T03:06:47.665Z,22.30
2022-11-14T03:09:34.394Z,22.77
2022-11-14T03:12:22.755Z,23.17
2022-11-14T03:15:12.087Z,25.67
2022-11-14T03:17:59.804Z,25.17
2022-11-14T03:20:46.640Z,25.17
2022-11-14T03:23:34.834Z,24.50
2022-11-14T03:26:21.889Z,24.40
2022-11-14T03:29:10.454Z,23.73
2022-11-14T03:31:57.413Z,23.37
2022-11-14T03:34:44.223Z,22.40
2022-11-14T03:37:32.221Z,24.63
2022-11-14T03:40:19.351Z,24.37
2022-11-14T03:43:06.229Z,24.37
2022-11-14T03:45:54.559Z,24.73
2022-11-14T03:48:41.048Z,24.13
2022-11-14T03:51:28.047Z,23.47
2022-11-14T03:54:15.205Z,21.87
2022-11-14T03:57:02.356Z,22.60
2022-11-14T03:59:49.349Z,22.63
2022-11-14T04:02:37.544Z,24.93
2022-11-14T04:05:25.116Z,23.33
2022-11-14T04:08:12.276Z,23.73
2022-11-14T04:10:59.150Z,22.77
2022-11-14T04:13:46.158Z,23.67
2022-11-14T04:16:32.787Z,23.37
2022-11-14T04:19:20.871Z,26.13
2022-11-14T04:22:07.620Z,25.60
2022-11-14T04:24:54.716Z,25.70
2022-11-14T04:27:41.621Z,24.30
2022-11-14T04:30:33.576Z,23.23
2022-11-14T04:33:22.232Z,24.70
2022-11-14T04:36:10.942Z,27.17
2022-11-14T04:38:58.187Z,24.73
2022-11-14T04:41:45.558Z,25.77
2022-11-14T04:44:32.426Z,25.27
2022-11-14T04:47:19.097Z,24.87
2022-11-14T04:50:06.799Z,27.77
2022-11-14T04:52:55.194Z,28.57
2022-11-14T04:55:41.901Z,28.13
2022-11-14T04:58:29.166Z,29.40
2022-11-14T05:01:17.974Z,28.63
2022-11-14T05:04:05.304Z,29.37
2022-11-14T05:06:53.591Z,29.33
2022-11-14T05:09:42.048Z,30.90
2022-11-14T05:12:29.418Z,29.30
2022-11-14T05:15:16.697Z,28.40
2022-11-14T05:18:03.701Z,26.27
2022-11-14T05:20:50.214Z,27.50
2022-11-14T05:23:37.047Z,27.97
2022-11-14T05:26:25.814Z,27.83
2022-11-14T05:29:12.788Z,28.17
2022-11-14T05:32:00.753Z,26.30
2022-11-14T05:34:47.864Z,25.00
2022-11-14T05:37:36.173Z,28.33
2022-11-14T05:40:22.835Z,27.67
2022-11-14T05:43:11.088Z,26.00
2022-11-14T05:46:00.987Z,26.80
2022-11-14T05:48:47.747Z,25.73
2022-11-14T05:51:34.566Z,25.63
2022-11-14T05:54:21.543Z,26.07
2022-11-14T05:57:08.552Z,26.50
2022-11-14T05:59:57.583Z,28.03
2022-11-14T06:02:46.128Z,29.97
2022-11-14T06:05:33.209Z,25.53
2022-11-14T06:08:19.974Z,30.20
2022-11-14T06:11:08.715Z,24.93
2022-11-14T06:13:55.701Z,26.60
2022-11-14T06:16:44.312Z,32.00
2022-11-14T06:19:32.288Z,32.30
2022-11-14T06:22:19.587Z,35.80
2022-11-14T06:25:07.325Z,31.57
2022-11-14T06:27:56.959Z,29.63
2022-11-14T06:30:44.437Z,27.60
2022-11-14T06:33:35.951Z,31.27
2022-11-14T06:36:22.985Z,26.77
2022-11-14T06:39:10.229Z,28.47
2022-11-14T06:41:57.186Z,31.50
2022-11-14T06:44:43.855Z,28.83
2022-11-14T06:47:30.576Z,30.93
2022-11-14T06:50:19.023Z,34.50
2022-11-14T06:53:06.131Z,32.63
2022-11-14T06:55:57.536Z,35.53
2022-11-14T06:58:46.274Z,22.83
2022-11-14T07:01:33.461Z,23.80
2022-11-14T07:04:20.586Z,23.00
2022-11-14T07:07:08.817Z,22.50
2022-11-14T07:09:56.590Z,20.70
2022-11-14T07:12:43.644Z,20.70
2022-11-14T07:15:30.594Z,20.03
2022-11-14T07:18:17.318Z,37.27
2022-11-14T07:21:06.453Z,56.40
2022-11-14T07:23:55.574Z,55.50
2022-11-14T07:26:42.270Z,32.77
2022-11-14T07:29:29.107Z,23.03
2022-11-14T07:32:16.193Z,54.53
2022-11-14T07:35:03.363Z,28.27
2022-11-14T07:37:50.974Z,22.53
2022-11-14T07:40:39.072Z,20.53
2022-11-14T07:43:26.527Z,23.73
2022-11-14T07:46:15.516Z,19.50
2022-11-14T07:49:02.592Z,20.73
2022-11-14T07:51:49.538Z,21.10
2022-11-14T07:54:36.226Z,18.70
2022-11-14T07:57:24.343Z,20.50
2022-11-14T08:00:12.915Z,21.33
2022-11-14T08:03:00.170Z,21.00
2022-11-14T08:05:47.026Z,22.67
2022-11-14T08:08:34.206Z,31.23
2022-11-14T08:11:41.713Z,91.23
2022-11-14T08:14:30.111Z,62.57
2022-11-14T08:17:17.551Z,39.43
2022-11-14T08:20:04.953Z,28.50
2022-11-14T08:22:51.831Z,19.73
2022-11-14T08:25:38.771Z,22.40
2022-11-14T08:28:26.901Z,29.07
2022-11-14T08:31:15.619Z,28.17
2022-11-14T08:34:02.505Z,31.40
2022-11-14T08:36:49.696Z,32.50
2022-11-14T08:39:37.075Z,26.07
2022-11-14T08:42:24.015Z,31.23
2022-11-14T08:45:12.581Z,22.67
2022-11-14T08:48:00.841Z,36.37
2022-11-14T08:50:48.898Z,24.20
2022-11-14T08:53:36.187Z,24.93
2022-11-14T08:56:23.126Z,26.43
2022-11-14T08:59:10.341Z,24.83
2022-11-14T09:01:57.287Z,18.77
2022-11-14T09:04:45.313Z,17.27
2022-11-14T09:07:32.539Z,16.87
2022-11-14T09:10:19.790Z,24.63
2022-11-14T09:13:07.038Z,25.83
2022-11-14T09:15:54.033Z,16.93
2022-11-14T09:18:41.208Z,16.90
2022-11-14T09:21:29.568Z,15.90
2022-11-14T09:24:16.532Z,19.10
2022-11-14T09:27:04.996Z,40.53
2022-11-14T09:29:51.977Z,23.70
2022-11-14T09:32:38.625Z,20.80
2022-11-14T09:35:25.378Z,18.00
2022-11-14T09:38:13.686Z,18.53
2022-11-14T09:41:11.626Z,17.50
2022-11-14T09:44:30.446Z,20.20
2022-11-14T09:47:21.815Z,27.23
2022-11-14T09:50:14.905Z,53.47
2022-11-14T09:53:07.499Z,69.93
2022-11-14T09:55:55.851Z,22.77
2022-11-14T09:58:43.263Z,19.00
2022-11-14T10:01:38.450Z,19.67
2022-11-14T10:04:34.178Z,21.07
2022-11-14T10:07:28.438Z,22.00
2022-11-14T10:10:27.367Z,20.47
2022-11-14T10:13:27.632Z,19.20
2022-11-14T10:16:20.686Z,17.80
2022-11-14T10:19:21.897Z,18.40
2022-11-14T10:22:21.432Z,19.83
2022-11-14T10:25:27.479Z,15.70
2022-11-14T10:28:44.881Z,17.57
2022-11-14T10:31:43.693Z,19.93
2022-11-14T10:34:35.578Z,23.07
2022-11-14T10:37:29.081Z,19.27
2022-11-14T10:40:19.758Z,20.97
2022-11-14T10:43:20.368Z,20.87
2022-11-14T10:46:13.200Z,18.67
2022-11-14T10:49:00.997Z,18.03
2022-11-14T10:51:51.423Z,17.63
2022-11-14T10:54:42.875Z,17.37
2022-11-14T10:57:30.136Z,17.80
2022-11-14T11:00:19.812Z,20.33
2022-11-14T11:03:08.317Z,17.87
2022-11-14T11:05:57.555Z,20.53
2022-11-14T11:09:02.239Z,20.73
2022-11-14T11:11:58.560Z,17.87
2022-11-14T11:14:45.650Z,16.83
2022-11-14T11:17:38.527Z,15.90
2022-11-14T11:20:34.155Z,14.53
2022-11-14T11:23:25.236Z,15.37
2022-11-14T11:26:20.323Z,15.27
2022-11-14T11:29:15.847Z,14.30
2022-11-14T11:32:03.778Z,15.73
2022-11-14T11:34:50.534Z,14.00
2022-11-14T11:37:42.726Z,13.53
2022-11-14T11:40:31.404Z,14.63
2022-11-14T11:43:43.878Z,14.17
2022-11-14T11:46:37.422Z,13.23
2022-11-14T11:49:35.340Z,13.33
2022-11-14T11:52:32.389Z,13.10
2022-11-14T11:55:25.578Z,11.93
2022-11-14T11:58:21.914Z,12.73
2022-11-14T12:01:11.641Z,11.67
2022-11-14T12:03:58.638Z,13.07
2022-11-14T12:06:52.259Z,12.37
2022-11-14T12:10:09.209Z,11.00
2022-11-14T12:13:33.617Z,11.73
2022-11-14T12:16:37.408Z,11.83
2022-11-14T12:19:52.661Z,11.70
2022-11-14T12:23:00.204Z,11.53
2022-11-14T12:26:10.239Z,10.90
2022-11-14T12:29:13.041Z,12.33
2022-11-14T12:32:06.909Z,13.33
2022-11-14T12:34:56.371Z,12.73
2022-11-14T12:37:52.662Z,11.70
2022-11-14T12:40:49.668Z,11.80
2022-11-14T12:43:38.866Z,12.70
2022-11-14T12:46:25.827Z,13.47
2022-11-14T12:49:39.953Z,11.70
2022-11-14T12:52:48.658Z,11.40
2022-11-14T12:55:57.172Z,12.47
2022-11-14T12:59:09.206Z,13.20
2022-11-14T13:02:18.037Z,13.37
2022-11-14T13:05:33.021Z,13.93
2022-11-14T13:08:43.199Z,13.70
2022-11-14T13:11:57.868Z,12.93
2022-11-14T13:15:15.394Z,10.77
2022-11-14T13:18:33.772Z,10.30
2022-11-14T13:21:45.606Z,11.00
2022-11-14T13:25:05.694Z,11.53
2022-11-14T13:28:18.871Z,9.70
2022-11-14T13:31:19.478Z,11.00
2022-11-14T13:34:33.541Z,12.63
2022-11-14T13:37:38.828Z,9.53
2022-11-14T13:40:34.467Z,10.17
2022-11-14T13:43:31.021Z,11.83
2022-11-14T13:46:28.462Z,8.63
2022-11-14T13:49:38.747Z,10.97
2022-11-14T13:52:30.448Z,9.73
2022-11-14T13:55:22.702Z,10.13
2022-11-14T13:58:21.038Z,9.63
2022-11-14T14:01:22.427Z,7.87
2022-11-14T14:04:21.595Z,9.90
2022-11-14T14:07:16.968Z,6.30
2022-11-14T14:10:11.822Z,7.17
2022-11-14T14:13:14.983Z,4.47
2022-11-14T14:16:08.582Z,6.20
2022-11-14T14:19:05.725Z,7.03
2022-11-14T14:21:59.106Z,6.17
2022-11-14T14:24:54.239Z,6.13
2022-11-14T14:27:54.110Z,6.87
2022-11-14T14:30:41.907Z,6.77
2022-11-14T14:33:30.176Z,7.63
2022-11-14T14:36:25.684Z,7.43
2022-11-14T14:39:21.055Z,5.67
2022-11-14T14:42:12.920Z,8.67
2022-11-14T14:45:01.296Z,5.80
2022-11-14T14:47:51.025Z,8.73
2022-11-14T14:50:41.617Z,6.07
2022-11-14T14:53:30.843Z,4.60
2022-11-14T14:56:20.912Z,6.63
2022-11-14T14:59:18.641Z,7.27
2022-11-14T15:02:16.203Z,5.97
2022-11-14T15:05:03.657Z,5.37
2022-11-14T15:07:52.116Z,5.70
2022-11-14T15:10:39.242Z,4.53
2022-11-14T15:13:28.612Z,4.43
2022-11-14T15:16:16.482Z,5.57
2022-11-14T15:19:06.649Z,6.97
2022-11-14T15:22:24.507Z,7.80
2022-11-14T15:25:21.316Z,6.43
2022-11-14T15:28:16.448Z,5.20
2022-11-14T15:31:05.114Z,6.27
2022-11-14T15:34:08.051Z,5.93
2022-11-14T15:37:21.093Z,4.50
2022-11-14T15:40:20.322Z,7.70
2022-11-14T15:43:39.071Z,5.70
2022-11-14T15:46:45.009Z,4.47
2022-11-14T15:49:36.357Z,4.70
2022-11-14T15:52:25.596Z,6.07
2022-11-14T15:55:16.370Z,7.23
2022-11-14T16:01:17.317Z,4.83
2022-11-14T16:04:04.898Z,4.47
2022-11-14T16:06:53.335Z,8.47
2022-11-14T16:09:40.343Z,6.77
2022-11-14T16:12:27.459Z,7.43
2022-11-14T16:15:14.349Z,5.80
2022-11-14T16:18:01.305Z,5.70
2022-11-14T16:20:48.554Z,9.60
2022-11-14T16:23:37.300Z,6.30
2022-11-14T16:26:25.942Z,7.37
2022-11-14T16:29:13.471Z,8.00
2022-11-14T16:32:00.327Z,8.00
2022-11-14T16:34:46.995Z,9.50
2022-11-14T16:37:33.972Z,8.27
2022-11-14T16:40:26.404Z,7.77
2022-11-14T16:43:14.836Z,8.13
2022-11-14T16:46:05.500Z,8.73
2022-11-14T16:48:52.993Z,9.40
2022-11-14T16:51:48.372Z,13.30
2022-11-14T16:54:36.063Z,13.27
2022-11-14T16:57:24.713Z,12.93
2022-11-14T17:00:13.660Z,9.67
2022-11-14T17:03:00.560Z,13.53
2022-11-14T17:05:49.240Z,11.93
2022-11-14T17:08:36.338Z,14.80
2022-11-14T17:11:23.435Z,10.50
2022-11-14T17:14:11.797Z,24.83
2022-11-14T17:17:04.375Z,16.90
2022-11-14T17:19:51.257Z,16.47
2022-11-14T17:22:38.464Z,16.50
2022-11-14T17:25:25.502Z,18.23
2022-11-14T17:28:12.416Z,20.73
2022-11-14T17:31:01.033Z,18.53
2022-11-14T17:33:52.499Z,19.17
2022-11-14T17:36:39.340Z,17.93
2022-11-14T17:39:26.231Z,17.27
2022-11-14T17:42:13.235Z,21.40
2022-11-14T17:45:01.087Z,17.67
2022-11-14T17:47:49.724Z,19.17
2022-11-14T17:50:40.197Z,17.27
2022-11-14T17:53:27.067Z,19.50
2022-11-14T17:56:16.286Z,18.60
2022-11-14T17:59:03.015Z,21.07
2022-11-14T18:01:50.241Z,20.50
2022-11-14T18:04:38.462Z,24.47
2022-11-14T18:07:25.724Z,25.77
2022-11-14T18:10:12.941Z,31.60
2022-11-14T18:13:03.751Z,33.87
2022-11-14T18:15:50.813Z,29.67
2022-11-14T18:18:38.809Z,33.00
2022-11-14T18:21:27.180Z,31.33
2022-11-14T18:24:15.276Z,32.47
2022-11-14T18:27:02.577Z,33.73
2022-11-14T18:29:49.624Z,31.47
2022-11-14T18:32:36.304Z,34.93
2022-11-14T18:35:26.633Z,37.63
2022-11-14T18:38:14.888Z,38.40
2022-11-14T18:41:03.728Z,31.27
2022-11-14T18:43:54.635Z,34.80
2022-11-14T18:46:41.750Z,34.83
2022-11-14T18:49:28.757Z,37.87
2022-11-14T18:52:17.515Z,31.57
2022-11-14T18:55:08.151Z,33.83
2022-11-14T18:57:55.155Z,38.57
2022-11-14T19:00:42.346Z,38.30
2022-11-14T19:03:31.765Z,43.60
2022-11-14T19:06:19.355Z,38.60
2022-11-14T19:09:11.343Z,36.63
2022-11-14T19:12:17.764Z,42.17
2022-11-14T19:15:05.239Z,34.73
2022-11-14T19:17:52.444Z,30.13
2022-11-14T19:20:40.546Z,22.40
2022-11-14T19:23:28.115Z,22.00
2022-11-14T19:26:15.275Z,32.07
2022-11-14T19:29:07.211Z,39.93
2022-11-14T19:31:54.635Z,47.77
2022-11-14T19:34:41.741Z,47.67
2022-11-14T19:37:29.327Z,45.90
2022-11-14T19:40:16.187Z,51.53
2022-11-14T19:43:04.187Z,58.13
2022-11-14T19:45:53.097Z,47.50
2022-11-14T19:48:40.570Z,39.63
2022-11-14T19:51:28.404Z,39.57
2022-11-14T19:54:16.824Z,38.40
2022-11-14T19:57:03.954Z,38.53
2022-11-14T19:59:52.322Z,37.30
2022-11-14T20:02:40.633Z,26.13
2022-11-14T20:05:28.233Z,25.73
2022-11-14T20:08:15.179Z,33.20
2022-11-14T20:11:05.013Z,29.70
2022-11-14T20:13:52.436Z,32.70
2022-11-14T20:16:39.724Z,27.43
2022-11-14T20:19:28.809Z,29.47
2022-11-14T20:22:16.081Z,18.77
2022-11-14T20:25:03.059Z,19.97
2022-11-14T20:27:50.134Z,28.90
2022-11-14T20:30:40.603Z,27.57
2022-11-14T20:33:27.932Z,32.77
2022-11-14T20:36:18.286Z,36.43
2022-11-14T20:39:05.311Z,35.50
2022-11-14T20:41:52.343Z,31.23
2022-11-14T20:44:39.509Z,26.57
2022-11-14T20:47:27.504Z,26.67
2022-11-14T20:50:16.251Z,30.23
2022-11-14T20:53:04.359Z,26.07
2022-11-14T20:55:55.071Z,34.27
2022-11-14T20:58:42.600Z,33.93
2022-11-14T21:01:29.684Z,37.73
2022-11-14T21:04:19.777Z,36.40
2022-11-14T21:07:06.637Z,32.50
2022-11-14T21:10:08.815Z,30.93
2022-11-14T21:13:09.617Z,29.00
2022-11-14T21:15:57.378Z,30.50
2022-11-14T21:18:48.181Z,31.27
2022-11-14T21:21:36.708Z,27.60
2022-11-14T21:24:23.936Z,29.50
2022-11-14T21:27:13.102Z,25.73
2022-11-14T21:29:59.861Z,24.13
2022-11-14T21:32:46.547Z,27.90
2022-11-14T21:35:33.406Z,29.97
2022-11-14T21:38:20.438Z,14.33
2022-11-14T21:41:08.249Z,19.90
2022-11-14T21:43:57.222Z,26.40
2022-11-14T21:46:46.297Z,21.70
2022-11-14T21:49:33.226Z,12.07
2022-11-14T21:52:19.730Z,13.80
2022-11-14T21:55:07.626Z,16.70
2022-11-14T21:57:56.538Z,16.37
2022-11-14T22:00:44.654Z,15.43
2022-11-14T22:03:49.028Z,17.67
2022-11-14T22:06:35.974Z,20.17
2022-11-14T22:09:24.169Z,16.00
2022-11-14T22:12:11.030Z,17.80
2022-11-14T22:14:57.918Z,16.30
2022-11-14T22:17:45.963Z,13.63
2022-11-14T22:20:32.966Z,12.70
2022-11-14T22:23:20.015Z,13.07
2022-11-14T22:26:08.039Z,11.17
2022-11-14T22:28:54.913Z,12.27
2022-11-14T22:31:41.592Z,9.67
2022-11-14T22:34:29.869Z,13.17
2022-11-14T22:37:16.632Z,14.17
2022-11-14T22:40:03.643Z,12.70
2022-11-14T22:42:50.289Z,11.87
2022-11-14T22:45:36.953Z,11.70
2022-11-14T22:48:24.024Z,11.53
2022-11-14T22:51:14.963Z,11.73
2022-11-14T22:54:01.647Z,14.03
2022-11-14T22:56:48.610Z,14.83
2022-11-14T22:59:35.365Z,15.00
2022-11-14T23:02:22.491Z,15.73
2022-11-14T23:05:09.504Z,11.37
2022-11-14T23:07:57.561Z,12.57
2022-11-14T23:10:45.002Z,10.80
2022-11-14T23:13:31.984Z,10.83
2022-11-14T23:16:20.367Z,11.20
2022-11-14T23:19:07.402Z,12.70
2022-11-14T23:21:55.407Z,12.77
2022-11-14T23:24:44.094Z,13.23
2022-11-14T23:27:33.873Z,12.90
2022-11-14T23:30:20.734Z,12.00
2022-11-14T23:33:07.381Z,12.87
2022-11-14T23:35:54.126Z,13.23
2022-11-14T23:38:40.830Z,13.57
2022-11-14T23:41:29.322Z,12.83
2022-11-14T23:44:16.093Z,11.67
2022-11-14T23:47:02.996Z,12.90
2022-11-14T23:49:50.002Z,12.10
2022-11-14T23:52:36.912Z,10.10
2022-11-14T23:55:23.480Z,10.50
2022-11-14T23:58:11.646Z,10.27
